Cooper City, Florida
Current Conditions -  °F | °C
As of 3:53 AM on Thursday 27 Nov 2014 (Local Time) from KHWO Reporting Station
Clear Clear  
Wind Chill: 55°   Ceiling: Unl
Heat Index: 55°   Visibility: 10mi
Dew Point: 47°   Wind: 14mph
Humidity: 74%   Direction: 330°NNW
Pressure: 30.2"   Gusts: NA
Location:  26.026°N, 80.2963°W
Report Text: KHWO 270853Z AUTO 33012KT 10SM CLR 13/08 A3020 RMK AO2 SLP226 T01280083 53004
Loading
Personal Weather Stations






























Interactive Weather Map New forecast layout! Learn more

10-Day Weather Forecast

Advertisements
Track Severe Weather on mobile